sensor_id;sensor_type;location;lat;lon;timestamp;P1;durP1;ratioP1;P2;durP2;ratioP2
47930;SDS011;33697;51.520;9.950;2023-03-24T00:02:17;5.03;;;1.60;;
47930;SDS011;33697;51.520;9.950;2023-03-24T00:04:46;2.50;;;1.48;;
47930;SDS011;33697;51.520;9.950;2023-03-24T00:07:13;2.80;;;1.50;;
47930;SDS011;33697;51.520;9.950;2023-03-24T00:09:41;4.32;;;1.40;;
47930;SDS011;33697;51.520;9.950;2023-03-24T00:12:11;5.93;;;1.90;;
47930;SDS011;33697;51.520;9.950;2023-03-24T00:14:39;2.60;;;1.90;;
47930;SDS011;33697;51.520;9.950;2023-03-24T00:17:13;3.67;;;2.13;;
47930;SDS011;33697;51.520;9.950;2023-03-24T00:19:45;3.80;;;2.60;;
47930;SDS011;33697;51.520;9.950;2023-03-24T00:22:13;3.80;;;2.22;;
47930;SDS011;33697;51.520;9.950;2023-03-24T00:24:52;4.78;;;2.50;;
47930;SDS011;33697;51.520;9.950;2023-03-24T00:27:25;4.30;;;2.53;;
47930;SDS011;33697;51.520;9.950;2023-03-24T00:30:08;7.43;;;3.30;;
47930;SDS011;33697;51.520;9.950;2023-03-24T00:32:35;5.97;;;3.47;;
47930;SDS011;33697;51.520;9.950;2023-03-24T00:35:04;5.25;;;3.08;;
47930;SDS011;33697;51.520;9.950;2023-03-24T00:37:31;6.03;;;3.10;;
47930;SDS011;33697;51.520;9.950;2023-03-24T00:39:57;4.88;;;3.20;;
47930;SDS011;33697;51.520;9.950;2023-03-24T00:42:26;4.05;;;3.65;;
47930;SDS011;33697;51.520;9.950;2023-03-24T00:45:06;5.30;;;2.90;;
47930;SDS011;33697;51.520;9.950;2023-03-24T00:47:40;5.72;;;3.35;;
47930;SDS011;33697;51.520;9.950;2023-03-24T00:50:14;4.05;;;3.13;;
47930;SDS011;33697;51.520;9.950;2023-03-24T00:52:41;4.70;;;3.25;;
47930;SDS011;33697;51.520;9.950;2023-03-24T00:55:10;6.93;;;3.75;;
47930;SDS011;33697;51.520;9.950;2023-03-24T00:57:44;5.30;;;4.43;;
47930;SDS011;33697;51.520;9.950;2023-03-24T01:00:18;3.92;;;2.80;;
47930;SDS011;33697;51.520;9.950;2023-03-24T01:02:51;7.13;;;5.18;;
47930;SDS011;33697;51.520;9.950;2023-03-24T01:05:22;5.20;;;4.63;;
47930;SDS011;33697;51.520;9.950;2023-03-24T01:07:48;4.95;;;4.45;;
47930;SDS011;33697;51.520;9.950;2023-03-24T01:10:20;7.25;;;3.95;;
47930;SDS011;33697;51.520;9.950;2023-03-24T01:12:52;4.32;;;3.38;;
47930;SDS011;33697;51.520;9.950;2023-03-24T01:15:20;3.80;;;2.95;;
47930;SDS011;33697;51.520;9.950;2023-03-24T01:17:48;5.32;;;3.28;;
47930;SDS011;33697;51.520;9.950;2023-03-24T01:20:15;3.55;;;3.08;;
47930;SDS011;33697;51.520;9.950;2023-03-24T01:22:50;5.68;;;4.00;;
47930;SDS011;33697;51.520;9.950;2023-03-24T01:25:20;4.38;;;3.33;;
47930;SDS011;33697;51.520;9.950;2023-03-24T01:27:51;2.70;;;2.38;;
47930;SDS011;33697;51.520;9.950;2023-03-24T01:30:23;3.53;;;2.90;;
47930;SDS011;33697;51.520;9.950;2023-03-24T01:32:52;5.68;;;2.38;;
47930;SDS011;33697;51.520;9.950;2023-03-24T01:35:19;3.15;;;2.50;;
47930;SDS011;33697;51.520;9.950;2023-03-24T01:37:46;7.18;;;2.83;;
47930;SDS011;33697;51.520;9.950;2023-03-24T01:40:16;3.35;;;2.33;;
47930;SDS011;33697;51.520;9.950;2023-03-24T01:42:42;3.67;;;2.63;;
47930;SDS011;33697;51.520;9.950;2023-03-24T01:45:56;3.08;;;2.30;;
47930;SDS011;33697;51.520;9.950;2023-03-24T01:47:58;3.43;;;2.10;;
47930;SDS011;33697;51.520;9.950;2023-03-24T01:50:43;2.53;;;2.33;;
47930;SDS011;33697;51.520;9.950;2023-03-24T01:53:12;2.95;;;2.13;;
47930;SDS011;33697;51.520;9.950;2023-03-24T01:55:40;4.07;;;2.33;;
47930;SDS011;33697;51.520;9.950;2023-03-24T01:58:26;5.10;;;2.15;;
47930;SDS011;33697;51.520;9.950;2023-03-24T02:00:57;4.10;;;2.42;;
47930;SDS011;33697;51.520;9.950;2023-03-24T02:03:24;3.88;;;2.13;;
47930;SDS011;33697;51.520;9.950;2023-03-24T02:05:52;2.28;;;2.08;;
47930;SDS011;33697;51.520;9.950;2023-03-24T02:08:39;3.63;;;2.58;;
47930;SDS011;33697;51.520;9.950;2023-03-24T02:11:15;3.97;;;2.55;;
47930;SDS011;33697;51.520;9.950;2023-03-24T02:13:42;4.97;;;2.47;;
47930;SDS011;33697;51.520;9.950;2023-03-24T02:19:22;6.32;;;2.22;;
47930;SDS011;33697;51.520;9.950;2023-03-24T02:45:34;4.32;;;2.75;;
47930;SDS011;33697;51.520;9.950;2023-03-24T02:50:38;9.63;;;5.17;;
47930;SDS011;33697;51.520;9.950;2023-03-24T02:53:16;8.73;;;2.70;;
47930;SDS011;33697;51.520;9.950;2023-03-24T02:55:51;3.40;;;2.92;;
47930;SDS011;33697;51.520;9.950;2023-03-24T02:58:38;5.78;;;3.30;;
47930;SDS011;33697;51.520;9.950;2023-03-24T03:01:11;4.90;;;3.20;;
47930;SDS011;33697;51.520;9.950;2023-03-24T03:03:52;3.20;;;2.85;;
47930;SDS011;33697;51.520;9.950;2023-03-24T03:06:22;3.42;;;2.65;;
47930;SDS011;33697;51.520;9.950;2023-03-24T03:08:49;5.47;;;3.20;;
47930;SDS011;33697;51.520;9.950;2023-03-24T03:11:20;3.35;;;2.72;;
47930;SDS011;33697;51.520;9.950;2023-03-24T03:14:24;9.13;;;4.07;;
47930;SDS011;33697;51.520;9.950;2023-03-24T03:16:47;4.72;;;3.58;;
47930;SDS011;33697;51.520;9.950;2023-03-24T03:19:29;5.50;;;3.58;;
47930;SDS011;33697;51.520;9.950;2023-03-24T03:21:59;5.68;;;4.28;;
47930;SDS011;33697;51.520;9.950;2023-03-24T03:24:29;4.05;;;3.65;;
47930;SDS011;33697;51.520;9.950;2023-03-24T03:26:59;5.20;;;3.67;;
47930;SDS011;33697;51.520;9.950;2023-03-24T03:29:28;4.47;;;3.72;;
47930;SDS011;33697;51.520;9.950;2023-03-24T03:31:59;7.60;;;3.97;;
47930;SDS011;33697;51.520;9.950;2023-03-24T03:34:35;4.32;;;3.17;;
47930;SDS011;33697;51.520;9.950;2023-03-24T03:37:04;4.43;;;3.50;;
47930;SDS011;33697;51.520;9.950;2023-03-24T03:39:33;4.30;;;3.90;;
47930;SDS011;33697;51.520;9.950;2023-03-24T03:42:02;4.70;;;3.40;;
47930;SDS011;33697;51.520;9.950;2023-03-24T03:44:29;5.43;;;3.53;;
47930;SDS011;33697;51.520;9.950;2023-03-24T03:47:02;6.45;;;2.90;;
47930;SDS011;33697;51.520;9.950;2023-03-24T03:49:32;6.25;;;4.10;;
47930;SDS011;33697;51.520;9.950;2023-03-24T03:52:08;4.13;;;3.55;;
47930;SDS011;33697;51.520;9.950;2023-03-24T03:54:36;6.95;;;4.65;;
47930;SDS011;33697;51.520;9.950;2023-03-24T03:57:03;7.93;;;4.30;;
47930;SDS011;33697;51.520;9.950;2023-03-24T03:59:30;8.25;;;4.00;;
47930;SDS011;33697;51.520;9.950;2023-03-24T04:04:51;4.30;;;3.83;;
47930;SDS011;33697;51.520;9.950;2023-03-24T04:18:10;5.50;;;3.83;;
47930;SDS011;33697;51.520;9.950;2023-03-24T04:20:42;4.43;;;3.72;;
47930;SDS011;33697;51.520;9.950;2023-03-24T04:31:25;5.18;;;3.78;;
47930;SDS011;33697;51.520;9.950;2023-03-24T04:34:03;7.22;;;4.53;;
47930;SDS011;33697;51.520;9.950;2023-03-24T04:36:38;9.88;;;4.63;;
47930;SDS011;33697;51.520;9.950;2023-03-24T04:39:15;5.40;;;4.43;;
47930;SDS011;33697;51.520;9.950;2023-03-24T04:41:42;6.10;;;4.70;;
47930;SDS011;33697;51.520;9.950;2023-03-24T04:44:13;8.85;;;4.50;;
47930;SDS011;33697;51.520;9.950;2023-03-24T04:46:50;5.43;;;4.93;;
47930;SDS011;33697;51.520;9.950;2023-03-24T04:49:27;5.40;;;4.85;;
47930;SDS011;33697;51.520;9.950;2023-03-24T04:52:01;6.13;;;4.95;;
47930;SDS011;33697;51.520;9.950;2023-03-24T04:54:27;6.57;;;4.47;;
47930;SDS011;33697;51.520;9.950;2023-03-24T04:56:55;6.43;;;4.80;;
47930;SDS011;33697;51.520;9.950;2023-03-24T04:59:29;6.85;;;4.90;;
47930;SDS011;33697;51.520;9.950;2023-03-24T05:02:14;9.50;;;5.13;;
47930;SDS011;33697;51.520;9.950;2023-03-24T05:04:47;6.75;;;4.70;;
47930;SDS011;33697;51.520;9.950;2023-03-24T05:07:16;5.10;;;4.45;;
47930;SDS011;33697;51.520;9.950;2023-03-24T05:09:47;5.32;;;4.38;;
47930;SDS011;33697;51.520;9.950;2023-03-24T05:12:29;10.40;;;4.37;;
47930;SDS011;33697;51.520;9.950;2023-03-24T05:14:57;8.88;;;4.88;;
47930;SDS011;33697;51.520;9.950;2023-03-24T05:17:32;6.85;;;4.72;;
47930;SDS011;33697;51.520;9.950;2023-03-24T05:20:12;6.60;;;4.50;;
47930;SDS011;33697;51.520;9.950;2023-03-24T05:22:40;5.30;;;4.80;;
47930;SDS011;33697;51.520;9.950;2023-03-24T05:25:06;9.13;;;4.80;;
47930;SDS011;33697;51.520;9.950;2023-03-24T05:27:33;4.95;;;4.18;;
47930;SDS011;33697;51.520;9.950;2023-03-24T05:30:00;5.43;;;4.13;;
47930;SDS011;33697;51.520;9.950;2023-03-24T05:32:33;6.22;;;4.28;;
47930;SDS011;33697;51.520;9.950;2023-03-24T05:34:59;8.07;;;4.50;;
47930;SDS011;33697;51.520;9.950;2023-03-24T05:37:26;4.53;;;3.30;;
47930;SDS011;33697;51.520;9.950;2023-03-24T05:39:58;4.50;;;3.83;;
47930;SDS011;33697;51.520;9.950;2023-03-24T05:42:34;4.72;;;3.38;;
47930;SDS011;33697;51.520;9.950;2023-03-24T05:45:22;4.28;;;3.30;;
47930;SDS011;33697;51.520;9.950;2023-03-24T05:47:56;4.20;;;2.80;;
47930;SDS011;33697;51.520;9.950;2023-03-24T05:50:25;6.60;;;3.72;;
47930;SDS011;33697;51.520;9.950;2023-03-24T05:53:05;5.47;;;3.50;;
47930;SDS011;33697;51.520;9.950;2023-03-24T05:55:35;4.85;;;3.20;;
47930;SDS011;33697;51.520;9.950;2023-03-24T05:58:02;4.80;;;3.80;;
47930;SDS011;33697;51.520;9.950;2023-03-24T06:00:29;4.43;;;3.30;;
47930;SDS011;33697;51.520;9.950;2023-03-24T06:03:05;5.53;;;4.00;;
47930;SDS011;33697;51.520;9.950;2023-03-24T06:05:34;4.13;;;3.58;;
47930;SDS011;33697;51.520;9.950;2023-03-24T06:08:13;5.28;;;3.63;;
47930;SDS011;33697;51.520;9.950;2023-03-24T06:10:47;10.35;;;4.00;;
47930;SDS011;33697;51.520;9.950;2023-03-24T06:13:14;5.15;;;3.40;;
47930;SDS011;33697;51.520;9.950;2023-03-24T06:15:41;4.88;;;4.30;;
47930;SDS011;33697;51.520;9.950;2023-03-24T06:18:10;11.30;;;5.18;;
47930;SDS011;33697;51.520;9.950;2023-03-24T06:21:07;7.53;;;5.18;;
47930;SDS011;33697;51.520;9.950;2023-03-24T06:23:40;9.48;;;4.45;;
47930;SDS011;33697;51.520;9.950;2023-03-24T06:26:10;6.57;;;4.78;;
47930;SDS011;33697;51.520;9.950;2023-03-24T06:28:37;6.63;;;4.72;;
47930;SDS011;33697;51.520;9.950;2023-03-24T06:31:09;7.07;;;4.97;;
47930;SDS011;33697;51.520;9.950;2023-03-24T06:33:51;14.02;;;6.70;;
47930;SDS011;33697;51.520;9.950;2023-03-24T06:36:29;6.07;;;4.03;;
47930;SDS011;33697;51.520;9.950;2023-03-24T06:39:01;5.63;;;4.30;;
47930;SDS011;33697;51.520;9.950;2023-03-24T06:41:35;10.07;;;5.43;;
47930;SDS011;33697;51.520;9.950;2023-03-24T06:44:02;5.82;;;4.45;;
47930;SDS011;33697;51.520;9.950;2023-03-24T06:46:53;5.82;;;4.13;;
47930;SDS011;33697;51.520;9.950;2023-03-24T06:49:20;6.43;;;4.45;;
47930;SDS011;33697;51.520;9.950;2023-03-24T06:51:59;7.95;;;4.10;;
47930;SDS011;33697;51.520;9.950;2023-03-24T06:54:34;10.48;;;4.13;;
47930;SDS011;33697;51.520;9.950;2023-03-24T06:57:06;8.85;;;3.92;;
47930;SDS011;33697;51.520;9.950;2023-03-24T06:59:36;5.20;;;4.45;;
47930;SDS011;33697;51.520;9.950;2023-03-24T07:02:09;6.88;;;3.55;;
47930;SDS011;33697;51.520;9.950;2023-03-24T07:09:11;9.85;;;4.25;;
47930;SDS011;33697;51.520;9.950;2023-03-24T07:11:44;6.78;;;3.47;;
47930;SDS011;33697;51.520;9.950;2023-03-24T07:14:20;7.43;;;5.80;;
47930;SDS011;33697;51.520;9.950;2023-03-24T07:19:27;4.10;;;3.33;;
47930;SDS011;33697;51.520;9.950;2023-03-24T07:21:54;4.63;;;3.00;;
47930;SDS011;33697;51.520;9.950;2023-03-24T07:24:24;8.02;;;4.00;;
47930;SDS011;33697;51.520;9.950;2023-03-24T07:26:51;3.50;;;3.17;;
47930;SDS011;33697;51.520;9.950;2023-03-24T07:29:27;4.80;;;2.92;;
47930;SDS011;33697;51.520;9.950;2023-03-24T07:32:14;7.63;;;2.92;;
47930;SDS011;33697;51.520;9.950;2023-03-24T07:34:41;4.78;;;3.65;;
47930;SDS011;33697;51.520;9.950;2023-03-24T07:37:09;4.45;;;3.45;;
47930;SDS011;33697;51.520;9.950;2023-03-24T10:48:43;3.67;;;0.75;;
47930;SDS011;33697;51.520;9.950;2023-03-24T10:51:18;5.22;;;0.80;;
47930;SDS011;33697;51.520;9.950;2023-03-24T10:53:48;3.00;;;0.20;;
47930;SDS011;33697;51.520;9.950;2023-03-24T10:59:50;2.70;;;0.47;;
47930;SDS011;33697;51.520;9.950;2023-03-24T11:02:38;3.40;;;0.45;;
47930;SDS011;33697;51.520;9.950;2023-03-24T11:05:32;5.35;;;0.35;;
47930;SDS011;33697;51.520;9.950;2023-03-24T11:10:59;4.97;;;1.35;;
47930;SDS011;33697;51.520;9.950;2023-03-24T11:13:30;1.60;;;0.20;;
47930;SDS011;33697;51.520;9.950;2023-03-24T11:16:36;6.57;;;0.30;;
47930;SDS011;33697;51.520;9.950;2023-03-24T11:19:23;2.67;;;0.47;;
47930;SDS011;33697;51.520;9.950;2023-03-24T11:21:58;1.88;;;0.10;;
47930;SDS011;33697;51.520;9.950;2023-03-24T11:24:33;5.88;;;0.38;;
47930;SDS011;33697;51.520;9.950;2023-03-24T11:27:00;4.28;;;0.38;;
47930;SDS011;33697;51.520;9.950;2023-03-24T11:29:42;2.47;;;0.20;;
47930;SDS011;33697;51.520;9.950;2023-03-24T11:32:23;2.55;;;0.30;;
47930;SDS011;33697;51.520;9.950;2023-03-24T11:35:06;5.38;;;0.25;;
47930;SDS011;33697;51.520;9.950;2023-03-24T11:37:34;5.97;;;0.73;;
47930;SDS011;33697;51.520;9.950;2023-03-24T11:40:15;2.63;;;0.30;;
47930;SDS011;33697;51.520;9.950;2023-03-24T11:42:50;2.55;;;0.55;;
47930;SDS011;33697;51.520;9.950;2023-03-24T11:45:27;6.75;;;0.82;;
47930;SDS011;33697;51.520;9.950;2023-03-24T11:47:56;2.88;;;1.00;;
47930;SDS011;33697;51.520;9.950;2023-03-24T11:50:24;5.72;;;1.00;;
47930;SDS011;33697;51.520;9.950;2023-03-24T11:52:57;3.00;;;0.32;;
47930;SDS011;33697;51.520;9.950;2023-03-24T11:55:33;0.90;;;0.13;;
47930;SDS011;33697;51.520;9.950;2023-03-24T11:58:02;3.60;;;0.43;;
47930;SDS011;33697;51.520;9.950;2023-03-24T12:00:40;4.03;;;0.50;;
47930;SDS011;33697;51.520;9.950;2023-03-24T12:05:40;1.33;;;0.22;;
47930;SDS011;33697;51.520;9.950;2023-03-24T12:08:10;3.42;;;0.52;;
47930;SDS011;33697;51.520;9.950;2023-03-24T12:26:29;2.28;;;0.40;;
47930;SDS011;33697;51.520;9.950;2023-03-24T12:32:11;2.47;;;0.32;;
47930;SDS011;33697;51.520;9.950;2023-03-24T12:35:08;4.55;;;0.40;;
47930;SDS011;33697;51.520;9.950;2023-03-24T12:57:09;3.53;;;0.60;;
47930;SDS011;33697;51.520;9.950;2023-03-24T12:59:38;4.15;;;0.40;;
47930;SDS011;33697;51.520;9.950;2023-03-24T13:04:53;5.85;;;0.80;;
47930;SDS011;33697;51.520;9.950;2023-03-24T13:10:26;4.10;;;0.82;;
47930;SDS011;33697;51.520;9.950;2023-03-24T13:15:40;3.22;;;0.75;;
47930;SDS011;33697;51.520;9.950;2023-03-24T13:18:15;5.22;;;0.95;;
47930;SDS011;33697;51.520;9.950;2023-03-24T13:21:03;5.63;;;1.33;;
47930;SDS011;33697;51.520;9.950;2023-03-24T13:27:28;7.72;;;0.98;;
47930;SDS011;33697;51.520;9.950;2023-03-24T13:37:20;3.42;;;1.23;;
47930;SDS011;33697;51.520;9.950;2023-03-24T13:39:48;5.43;;;1.63;;
47930;SDS011;33697;51.520;9.950;2023-03-24T13:44:54;15.23;;;1.25;;
47930;SDS011;33697;51.520;9.950;2023-03-24T13:50:19;4.20;;;1.65;;
47930;SDS011;33697;51.520;9.950;2023-03-24T13:52:47;4.18;;;0.93;;
47930;SDS011;33697;51.520;9.950;2023-03-24T13:55:29;12.18;;;3.50;;
47930;SDS011;33697;51.520;9.950;2023-03-24T14:02:08;2.97;;;0.55;;
47930;SDS011;33697;51.520;9.950;2023-03-24T14:05:08;10.30;;;2.10;;
47930;SDS011;33697;51.520;9.950;2023-03-24T14:12:56;4.15;;;1.00;;
47930;SDS011;33697;51.520;9.950;2023-03-24T14:28:54;5.10;;;1.58;;
47930;SDS011;33697;51.520;9.950;2023-03-24T14:31:34;8.10;;;1.00;;
47930;SDS011;33697;51.520;9.950;2023-03-24T14:37:14;2.42;;;0.93;;
47930;SDS011;33697;51.520;9.950;2023-03-24T14:39:51;5.05;;;1.70;;
47930;SDS011;33697;51.520;9.950;2023-03-24T14:48:14;7.35;;;1.27;;
47930;SDS011;33697;51.520;9.950;2023-03-24T14:50:42;8.23;;;2.67;;
47930;SDS011;33697;51.520;9.950;2023-03-24T14:53:31;6.28;;;1.70;;
47930;SDS011;33697;51.520;9.950;2023-03-24T14:56:05;5.45;;;1.17;;
47930;SDS011;33697;51.520;9.950;2023-03-24T14:58:42;6.38;;;1.35;;
47930;SDS011;33697;51.520;9.950;2023-03-24T15:01:16;5.57;;;1.02;;
47930;SDS011;33697;51.520;9.950;2023-03-24T15:06:26;4.88;;;1.17;;
47930;SDS011;33697;51.520;9.950;2023-03-24T15:08:56;3.22;;;0.63;;
47930;SDS011;33697;51.520;9.950;2023-03-24T15:11:41;8.80;;;1.08;;
47930;SDS011;33697;51.520;9.950;2023-03-24T15:14:21;9.75;;;1.67;;
47930;SDS011;33697;51.520;9.950;2023-03-24T15:17:24;7.40;;;1.25;;
47930;SDS011;33697;51.520;9.950;2023-03-24T15:19:43;5.25;;;1.60;;
47930;SDS011;33697;51.520;9.950;2023-03-24T15:22:14;6.43;;;1.20;;
47930;SDS011;33697;51.520;9.950;2023-03-24T15:24:45;4.70;;;0.80;;
47930;SDS011;33697;51.520;9.950;2023-03-24T15:27:13;4.82;;;0.82;;
47930;SDS011;33697;51.520;9.950;2023-03-24T15:29:55;5.20;;;1.35;;
47930;SDS011;33697;51.520;9.950;2023-03-24T15:32:35;7.80;;;3.72;;
47930;SDS011;33697;51.520;9.950;2023-03-24T15:35:09;6.45;;;2.45;;
47930;SDS011;33697;51.520;9.950;2023-03-24T15:37:59;5.28;;;0.88;;
47930;SDS011;33697;51.520;9.950;2023-03-24T15:42:58;2.88;;;0.65;;
47930;SDS011;33697;51.520;9.950;2023-03-24T15:45:35;2.05;;;0.65;;
47930;SDS011;33697;51.520;9.950;2023-03-24T15:48:13;6.93;;;1.52;;
47930;SDS011;33697;51.520;9.950;2023-03-24T15:53:39;5.65;;;1.05;;
47930;SDS011;33697;51.520;9.950;2023-03-24T15:56:23;2.90;;;0.68;;
47930;SDS011;33697;51.520;9.950;2023-03-24T16:01:33;14.93;;;2.03;;
47930;SDS011;33697;51.520;9.950;2023-03-24T16:04:04;8.77;;;1.27;;
47930;SDS011;33697;51.520;9.950;2023-03-24T16:06:33;2.20;;;0.70;;
47930;SDS011;33697;51.520;9.950;2023-03-24T16:09:07;6.07;;;1.75;;
47930;SDS011;33697;51.520;9.950;2023-03-24T16:11:35;5.30;;;0.73;;
47930;SDS011;33697;51.520;9.950;2023-03-24T16:14:05;3.67;;;0.55;;
47930;SDS011;33697;51.520;9.950;2023-03-24T16:16:37;2.75;;;0.82;;
47930;SDS011;33697;51.520;9.950;2023-03-24T16:19:06;5.57;;;0.80;;
47930;SDS011;33697;51.520;9.950;2023-03-24T16:21:33;8.15;;;0.95;;
47930;SDS011;33697;51.520;9.950;2023-03-24T16:24:00;5.85;;;0.90;;
47930;SDS011;33697;51.520;9.950;2023-03-24T16:26:28;8.15;;;1.10;;
47930;SDS011;33697;51.520;9.950;2023-03-24T16:28:58;4.15;;;0.65;;
47930;SDS011;33697;51.520;9.950;2023-03-24T16:31:26;7.55;;;1.23;;
47930;SDS011;33697;51.520;9.950;2023-03-24T16:36:23;3.17;;;0.98;;
47930;SDS011;33697;51.520;9.950;2023-03-24T16:38:57;7.53;;;1.13;;
47930;SDS011;33697;51.520;9.950;2023-03-24T16:41:40;6.10;;;1.02;;
47930;SDS011;33697;51.520;9.950;2023-03-24T16:44:11;6.35;;;0.73;;
47930;SDS011;33697;51.520;9.950;2023-03-24T16:49:49;8.20;;;1.00;;
47930;SDS011;33697;51.520;9.950;2023-03-24T16:52:16;4.40;;;0.68;;
47930;SDS011;33697;51.520;9.950;2023-03-24T16:54:51;3.55;;;0.57;;
47930;SDS011;33697;51.520;9.950;2023-03-24T16:57:42;7.68;;;1.38;;
47930;SDS011;33697;51.520;9.950;2023-03-24T17:00:22;5.25;;;0.60;;
47930;SDS011;33697;51.520;9.950;2023-03-24T17:03:12;7.13;;;0.80;;
47930;SDS011;33697;51.520;9.950;2023-03-24T17:05:51;5.50;;;0.65;;
47930;SDS011;33697;51.520;9.950;2023-03-24T20:14:50;0.63;;;0.63;;
47930;SDS011;33697;51.520;9.950;2023-03-24T20:17:17;2.97;;;1.88;;
47930;SDS011;33697;51.520;9.950;2023-03-24T20:19:49;2.95;;;1.52;;
47930;SDS011;33697;51.520;9.950;2023-03-24T20:22:16;2.70;;;1.42;;
47930;SDS011;33697;51.520;9.950;2023-03-24T20:24:48;1.90;;;0.90;;
47930;SDS011;33697;51.520;9.950;2023-03-24T20:27:25;3.63;;;2.42;;
47930;SDS011;33697;51.520;9.950;2023-03-24T20:30:00;5.15;;;1.35;;
47930;SDS011;33697;51.520;9.950;2023-03-24T20:32:33;0.93;;;0.60;;
47930;SDS011;33697;51.520;9.950;2023-03-24T20:35:15;0.20;;;0.10;;
47930;SDS011;33697;51.520;9.950;2023-03-24T20:37:41;1.58;;;0.50;;
47930;SDS011;33697;51.520;9.950;2023-03-24T20:40:22;1.02;;;0.40;;
47930;SDS011;33697;51.520;9.950;2023-03-24T20:42:52;3.63;;;0.70;;
47930;SDS011;33697;51.520;9.950;2023-03-24T20:45:18;2.38;;;0.40;;
47930;SDS011;33697;51.520;9.950;2023-03-24T20:47:45;9.00;;;0.85;;
47930;SDS011;33697;51.520;9.950;2023-03-24T20:50:18;2.85;;;0.70;;
47930;SDS011;33697;51.520;9.950;2023-03-24T20:52:45;2.22;;;0.52;;
47930;SDS011;33697;51.520;9.950;2023-03-24T20:55:14;1.40;;;0.55;;
47930;SDS011;33697;51.520;9.950;2023-03-24T20:57:41;0.98;;;0.45;;
47930;SDS011;33697;51.520;9.950;2023-03-24T21:00:08;0.95;;;0.40;;
47930;SDS011;33697;51.520;9.950;2023-03-24T21:02:43;1.45;;;0.50;;
47930;SDS011;33697;51.520;9.950;2023-03-24T21:08:05;3.05;;;0.88;;
47930;SDS011;33697;51.520;9.950;2023-03-24T21:10:34;4.80;;;1.02;;
47930;SDS011;33697;51.520;9.950;2023-03-24T21:13:15;0.95;;;0.95;;
47930;SDS011;33697;51.520;9.950;2023-03-24T21:15:42;2.78;;;0.75;;
47930;SDS011;33697;51.520;9.950;2023-03-24T21:18:15;0.80;;;0.60;;
47930;SDS011;33697;51.520;9.950;2023-03-24T21:20:48;1.27;;;0.70;;
47930;SDS011;33697;51.520;9.950;2023-03-24T21:23:21;2.95;;;0.95;;
47930;SDS011;33697;51.520;9.950;2023-03-24T21:25:48;2.38;;;0.98;;
47930;SDS011;33697;51.520;9.950;2023-03-24T21:28:16;1.77;;;1.00;;
47930;SDS011;33697;51.520;9.950;2023-03-24T21:30:44;1.25;;;0.90;;
47930;SDS011;33697;51.520;9.950;2023-03-24T21:33:21;5.20;;;1.50;;
47930;SDS011;33697;51.520;9.950;2023-03-24T21:36:00;1.02;;;0.98;;
47930;SDS011;33697;51.520;9.950;2023-03-24T21:38:29;1.80;;;0.93;;
47930;SDS011;33697;51.520;9.950;2023-03-24T21:41:08;2.53;;;0.85;;
47930;SDS011;33697;51.520;9.950;2023-03-24T21:43:37;0.95;;;0.85;;
47930;SDS011;33697;51.520;9.950;2023-03-24T21:46:05;3.28;;;0.80;;
47930;SDS011;33697;51.520;9.950;2023-03-24T21:48:49;2.80;;;0.75;;
47930;SDS011;33697;51.520;9.950;2023-03-24T21:54:18;1.17;;;0.98;;
47930;SDS011;33697;51.520;9.950;2023-03-24T21:56:53;0.90;;;0.68;;
47930;SDS011;33697;51.520;9.950;2023-03-24T21:59:31;2.13;;;0.90;;
47930;SDS011;33697;51.520;9.950;2023-03-24T22:02:02;3.05;;;1.05;;
47930;SDS011;33697;51.520;9.950;2023-03-24T22:04:31;1.10;;;0.60;;
47930;SDS011;33697;51.520;9.950;2023-03-24T22:07:03;3.67;;;0.88;;
47930;SDS011;33697;51.520;9.950;2023-03-24T22:09:32;5.60;;;2.20;;
47930;SDS011;33697;51.520;9.950;2023-03-24T22:12:04;2.88;;;0.90;;
47930;SDS011;33697;51.520;9.950;2023-03-24T22:14:42;2.08;;;0.85;;
47930;SDS011;33697;51.520;9.950;2023-03-24T22:17:32;2.92;;;0.85;;
47930;SDS011;33697;51.520;9.950;2023-03-24T22:20:26;3.03;;;0.77;;
47930;SDS011;33697;51.520;9.950;2023-03-24T22:23:02;3.25;;;1.00;;
47930;SDS011;33697;51.520;9.950;2023-03-24T22:25:39;4.57;;;1.00;;
47930;SDS011;33697;51.520;9.950;2023-03-24T22:28:06;4.53;;;2.15;;
47930;SDS011;33697;51.520;9.950;2023-03-24T22:30:35;3.13;;;0.70;;
47930;SDS011;33697;51.520;9.950;2023-03-24T22:33:01;1.35;;;0.90;;
47930;SDS011;33697;51.520;9.950;2023-03-24T22:35:28;5.50;;;1.13;;
47930;SDS011;33697;51.520;9.950;2023-03-24T22:37:57;1.83;;;0.77;;
47930;SDS011;33697;51.520;9.950;2023-03-24T22:40:25;2.35;;;1.15;;
47930;SDS011;33697;51.520;9.950;2023-03-24T22:42:59;4.82;;;0.90;;
47930;SDS011;33697;51.520;9.950;2023-03-24T22:45:28;2.40;;;0.73;;
47930;SDS011;33697;51.520;9.950;2023-03-24T22:47:54;5.07;;;0.95;;
47930;SDS011;33697;51.520;9.950;2023-03-24T22:50:23;2.78;;;0.77;;
47930;SDS011;33697;51.520;9.950;2023-03-24T22:52:52;3.05;;;1.30;;
47930;SDS011;33697;51.520;9.950;2023-03-24T22:55:18;2.47;;;0.63;;
47930;SDS011;33697;51.520;9.950;2023-03-24T22:57:50;5.63;;;0.77;;
47930;SDS011;33697;51.520;9.950;2023-03-24T23:00:17;8.50;;;1.30;;
47930;SDS011;33697;51.520;9.950;2023-03-24T23:02:46;4.10;;;0.65;;
47930;SDS011;33697;51.520;9.950;2023-03-24T23:05:13;3.72;;;0.65;;
47930;SDS011;33697;51.520;9.950;2023-03-24T23:07:40;2.17;;;0.98;;
47930;SDS011;33697;51.520;9.950;2023-03-24T23:10:07;7.57;;;1.67;;
47930;SDS011;33697;51.520;9.950;2023-03-24T23:12:33;1.45;;;1.05;;
47930;SDS011;33697;51.520;9.950;2023-03-24T23:15:02;3.05;;;1.00;;
47930;SDS011;33697;51.520;9.950;2023-03-24T23:17:29;2.05;;;1.40;;
47930;SDS011;33697;51.520;9.950;2023-03-24T23:20:00;2.17;;;0.80;;
47930;SDS011;33697;51.520;9.950;2023-03-24T23:22:35;1.40;;;0.63;;
47930;SDS011;33697;51.520;9.950;2023-03-24T23:25:18;2.85;;;0.98;;
47930;SDS011;33697;51.520;9.950;2023-03-24T23:27:44;6.93;;;0.98;;
47930;SDS011;33697;51.520;9.950;2023-03-24T23:30:21;6.90;;;0.95;;
47930;SDS011;33697;51.520;9.950;2023-03-24T23:33:04;4.07;;;0.57;;
47930;SDS011;33697;51.520;9.950;2023-03-24T23:35:33;3.85;;;1.15;;
47930;SDS011;33697;51.520;9.950;2023-03-24T23:38:16;4.20;;;0.57;;
47930;SDS011;33697;51.520;9.950;2023-03-24T23:40:58;4.50;;;0.55;;
47930;SDS011;33697;51.520;9.950;2023-03-24T23:43:42;5.07;;;0.65;;
47930;SDS011;33697;51.520;9.950;2023-03-24T23:46:35;3.22;;;0.60;;
47930;SDS011;33697;51.520;9.950;2023-03-24T23:49:11;3.00;;;0.82;;
47930;SDS011;33697;51.520;9.950;2023-03-24T23:51:46;1.45;;;0.70;;
47930;SDS011;33697;51.520;9.950;2023-03-24T23:54:16;2.05;;;0.55;;
47930;SDS011;33697;51.520;9.950;2023-03-24T23:56:48;1.70;;;0.52;;
47930;SDS011;33697;51.520;9.950;2023-03-24T23:59:19;0.90;;;0.60;;
